sensor_id;sensor_type;location;lat;lon;timestamp;pressure;altitude;pressure_sealevel;temperature
7882;BMP180;3986;41.884;23.466;2022-12-07T00:01:37;91993.00;;;3.10
7882;BMP180;3986;41.884;23.466;2022-12-07T00:04:07;91989.00;;;2.70
7882;BMP180;3986;41.884;23.466;2022-12-07T00:06:36;91984.00;;;2.40
7882;BMP180;3986;41.884;23.466;2022-12-07T00:09:04;91983.00;;;2.20
7882;BMP180;3986;41.884;23.466;2022-12-07T00:11:31;91988.00;;;2.30
7882;BMP180;3986;41.884;23.466;2022-12-07T00:14:00;91987.00;;;2.50
7882;BMP180;3986;41.884;23.466;2022-12-07T00:16:30;91981.00;;;2.20
7882;BMP180;3986;41.884;23.466;2022-12-07T00:18:57;92009.00;;;2.20
7882;BMP180;3986;41.884;23.466;2022-12-07T00:21:27;91981.00;;;2.20
7882;BMP180;3986;41.884;23.466;2022-12-07T00:23:55;91983.00;;;2.30
7882;BMP180;3986;41.884;23.466;2022-12-07T00:26:23;91981.00;;;2.50
7882;BMP180;3986;41.884;23.466;2022-12-07T00:28:53;91977.00;;;2.80
7882;BMP180;3986;41.884;23.466;2022-12-07T00:31:21;91983.00;;;3.00
7882;BMP180;3986;41.884;23.466;2022-12-07T00:33:49;91976.00;;;2.40
7882;BMP180;3986;41.884;23.466;2022-12-07T00:36:17;91912.00;;;2.10
7882;BMP180;3986;41.884;23.466;2022-12-07T00:38:46;91980.00;;;2.00
7882;BMP180;3986;41.884;23.466;2022-12-07T00:41:15;91976.00;;;1.80
7882;BMP180;3986;41.884;23.466;2022-12-07T00:43:43;91940.00;;;2.00
7882;BMP180;3986;41.884;23.466;2022-12-07T00:46:11;92005.00;;;2.40
7882;BMP180;3986;41.884;23.466;2022-12-07T00:48:38;91980.00;;;2.50
7882;BMP180;3986;41.884;23.466;2022-12-07T00:51:05;91979.00;;;2.70
7882;BMP180;3986;41.884;23.466;2022-12-07T00:53:34;91994.00;;;2.70
7882;BMP180;3986;41.884;23.466;2022-12-07T00:56:06;91997.00;;;2.00
7882;BMP180;3986;41.884;23.466;2022-12-07T00:58:33;91971.00;;;2.00
7882;BMP180;3986;41.884;23.466;2022-12-07T01:01:01;91964.00;;;2.10
7882;BMP180;3986;41.884;23.466;2022-12-07T01:03:28;91975.00;;;2.20
7882;BMP180;3986;41.884;23.466;2022-12-07T01:05:55;91966.00;;;2.50
7882;BMP180;3986;41.884;23.466;2022-12-07T01:08:23;91966.00;;;1.80
7882;BMP180;3986;41.884;23.466;2022-12-07T01:10:57;91962.00;;;1.70
7882;BMP180;3986;41.884;23.466;2022-12-07T01:13:25;91967.00;;;1.80
7882;BMP180;3986;41.884;23.466;2022-12-07T01:15:56;91955.00;;;1.10
7882;BMP180;3986;41.884;23.466;2022-12-07T01:18:23;91959.00;;;2.20
7882;BMP180;3986;41.884;23.466;2022-12-07T01:20:57;91950.00;;;1.80
7882;BMP180;3986;41.884;23.466;2022-12-07T01:23:25;91953.00;;;1.80
7882;BMP180;3986;41.884;23.466;2022-12-07T01:25:54;91950.00;;;1.80
7882;BMP180;3986;41.884;23.466;2022-12-07T01:28:21;91941.00;;;1.80
7882;BMP180;3986;41.884;23.466;2022-12-07T01:30:59;91947.00;;;1.90
7882;BMP180;3986;41.884;23.466;2022-12-07T01:33:27;91932.00;;;2.30
7882;BMP180;3986;41.884;23.466;2022-12-07T01:35:55;91939.00;;;2.40
7882;BMP180;3986;41.884;23.466;2022-12-07T01:38:26;91936.00;;;2.30
7882;BMP180;3986;41.884;23.466;2022-12-07T01:40:54;91941.00;;;2.20
7882;BMP180;3986;41.884;23.466;2022-12-07T01:43:22;91943.00;;;2.50
7882;BMP180;3986;41.884;23.466;2022-12-07T01:45:50;91939.00;;;2.50
7882;BMP180;3986;41.884;23.466;2022-12-07T01:48:20;91933.00;;;2.60
7882;BMP180;3986;41.884;23.466;2022-12-07T01:50:50;91930.00;;;2.70
7882;BMP180;3986;41.884;23.466;2022-12-07T01:53:19;91933.00;;;2.70
7882;BMP180;3986;41.884;23.466;2022-12-07T01:55:49;91935.00;;;2.60
7882;BMP180;3986;41.884;23.466;2022-12-07T01:58:18;91934.00;;;2.60
7882;BMP180;3986;41.884;23.466;2022-12-07T02:00:46;91935.00;;;2.00
7882;BMP180;3986;41.884;23.466;2022-12-07T02:03:18;91938.00;;;1.70
7882;BMP180;3986;41.884;23.466;2022-12-07T02:05:46;91934.00;;;1.80
7882;BMP180;3986;41.884;23.466;2022-12-07T02:08:14;91939.00;;;1.80
7882;BMP180;3986;41.884;23.466;2022-12-07T02:10:41;91939.00;;;2.00
7882;BMP180;3986;41.884;23.466;2022-12-07T02:13:10;91930.00;;;2.00
7882;BMP180;3986;41.884;23.466;2022-12-07T02:15:59;91930.00;;;2.30
7882;BMP180;3986;41.884;23.466;2022-12-07T02:18:39;91930.00;;;2.40
7882;BMP180;3986;41.884;23.466;2022-12-07T02:21:14;91934.00;;;2.10
7882;BMP180;3986;41.884;23.466;2022-12-07T02:24:19;91930.00;;;1.90
7882;BMP180;3986;41.884;23.466;2022-12-07T02:27:16;91958.00;;;1.90
7882;BMP180;3986;41.884;23.466;2022-12-07T02:29:55;91929.00;;;1.80
7882;BMP180;3986;41.884;23.466;2022-12-07T02:32:27;91896.00;;;2.30
7882;BMP180;3986;41.884;23.466;2022-12-07T02:34:58;91927.00;;;2.20
7882;BMP180;3986;41.884;23.466;2022-12-07T02:37:35;91930.00;;;1.60
7882;BMP180;3986;41.884;23.466;2022-12-07T02:40:08;91922.00;;;1.90
7882;BMP180;3986;41.884;23.466;2022-12-07T02:42:42;91923.00;;;2.50
7882;BMP180;3986;41.884;23.466;2022-12-07T02:45:13;91916.00;;;2.70
7882;BMP180;3986;41.884;23.466;2022-12-07T02:47:41;91942.00;;;2.50
7882;BMP180;3986;41.884;23.466;2022-12-07T02:50:09;91910.00;;;2.20
7882;BMP180;3986;41.884;23.466;2022-12-07T02:52:36;91915.00;;;1.80
7882;BMP180;3986;41.884;23.466;2022-12-07T02:55:04;91914.00;;;1.90
7882;BMP180;3986;41.884;23.466;2022-12-07T02:57:54;91909.00;;;1.80
7882;BMP180;3986;41.884;23.466;2022-12-07T03:00:27;91905.00;;;2.20
7882;BMP180;3986;41.884;23.466;2022-12-07T03:02:58;91898.00;;;2.30
7882;BMP180;3986;41.884;23.466;2022-12-07T03:05:55;91913.00;;;2.60
7882;BMP180;3986;41.884;23.466;2022-12-07T03:08:31;91919.00;;;2.20
7882;BMP180;3986;41.884;23.466;2022-12-07T03:11:03;91905.00;;;2.20
7882;BMP180;3986;41.884;23.466;2022-12-07T03:13:34;91915.00;;;2.20
7882;BMP180;3986;41.884;23.466;2022-12-07T03:16:11;91908.00;;;2.40
7882;BMP180;3986;41.884;23.466;2022-12-07T03:18:45;91912.00;;;1.90
7882;BMP180;3986;41.884;23.466;2022-12-07T03:21:19;91880.00;;;2.50
7882;BMP180;3986;41.884;23.466;2022-12-07T03:23:50;91908.00;;;2.40
7882;BMP180;3986;41.884;23.466;2022-12-07T03:26:19;91909.00;;;2.50
7882;BMP180;3986;41.884;23.466;2022-12-07T03:28:51;91905.00;;;2.50
7882;BMP180;3986;41.884;23.466;2022-12-07T03:31:22;91897.00;;;2.60
7882;BMP180;3986;41.884;23.466;2022-12-07T03:33:56;91901.00;;;2.60
7882;BMP180;3986;41.884;23.466;2022-12-07T03:36:29;91909.00;;;2.70
7882;BMP180;3986;41.884;23.466;2022-12-07T03:39:02;91912.00;;;2.60
7882;BMP180;3986;41.884;23.466;2022-12-07T03:41:32;91901.00;;;2.60
7882;BMP180;3986;41.884;23.466;2022-12-07T03:44:00;91907.00;;;2.60
7882;BMP180;3986;41.884;23.466;2022-12-07T03:46:34;91907.00;;;2.80
7882;BMP180;3986;41.884;23.466;2022-12-07T03:49:08;91923.00;;;2.80
7882;BMP180;3986;41.884;23.466;2022-12-07T03:51:41;91905.00;;;2.70
7882;BMP180;3986;41.884;23.466;2022-12-07T03:54:14;91896.00;;;3.00
7882;BMP180;3986;41.884;23.466;2022-12-07T03:56:43;91903.00;;;3.00
7882;BMP180;3986;41.884;23.466;2022-12-07T03:59:12;91922.00;;;2.70
7882;BMP180;3986;41.884;23.466;2022-12-07T04:01:42;91898.00;;;2.80
7882;BMP180;3986;41.884;23.466;2022-12-07T04:04:09;91901.00;;;2.80
7882;BMP180;3986;41.884;23.466;2022-12-07T04:06:36;91903.00;;;2.60
7882;BMP180;3986;41.884;23.466;2022-12-07T04:09:03;91906.00;;;2.70
7882;BMP180;3986;41.884;23.466;2022-12-07T04:11:30;91900.00;;;3.00
7882;BMP180;3986;41.884;23.466;2022-12-07T04:13:56;91898.00;;;2.70
7882;BMP180;3986;41.884;23.466;2022-12-07T04:16:42;91899.00;;;2.80
7882;BMP180;3986;41.884;23.466;2022-12-07T04:19:09;91895.00;;;2.60
7882;BMP180;3986;41.884;23.466;2022-12-07T04:21:35;91891.00;;;2.40
7882;BMP180;3986;41.884;23.466;2022-12-07T04:24:03;91919.00;;;2.50
7882;BMP180;3986;41.884;23.466;2022-12-07T04:26:29;91890.00;;;2.90
7882;BMP180;3986;41.884;23.466;2022-12-07T04:28:56;91892.00;;;2.70
7882;BMP180;3986;41.884;23.466;2022-12-07T04:31:23;91888.00;;;2.60
7882;BMP180;3986;41.884;23.466;2022-12-07T04:33:51;91879.00;;;2.40
7882;BMP180;3986;41.884;23.466;2022-12-07T04:36:18;91880.00;;;2.40
7882;BMP180;3986;41.884;23.466;2022-12-07T04:38:46;91890.00;;;2.70
7882;BMP180;3986;41.884;23.466;2022-12-07T04:41:12;91886.00;;;3.00
7882;BMP180;3986;41.884;23.466;2022-12-07T04:43:39;91910.00;;;2.90
7882;BMP180;3986;41.884;23.466;2022-12-07T04:46:06;91878.00;;;2.60
7882;BMP180;3986;41.884;23.466;2022-12-07T04:48:33;91880.00;;;2.70
7882;BMP180;3986;41.884;23.466;2022-12-07T04:51:02;91872.00;;;2.80
7882;BMP180;3986;41.884;23.466;2022-12-07T04:53:29;91883.00;;;2.70
7882;BMP180;3986;41.884;23.466;2022-12-07T04:55:56;91881.00;;;2.70
7882;BMP180;3986;41.884;23.466;2022-12-07T04:58:23;91881.00;;;3.20
7882;BMP180;3986;41.884;23.466;2022-12-07T05:00:53;91888.00;;;3.30
7882;BMP180;3986;41.884;23.466;2022-12-07T05:03:20;91891.00;;;2.70
7882;BMP180;3986;41.884;23.466;2022-12-07T05:05:47;91895.00;;;2.90
7882;BMP180;3986;41.884;23.466;2022-12-07T05:08:15;91893.00;;;3.10
7882;BMP180;3986;41.884;23.466;2022-12-07T05:10:42;91896.00;;;3.20
7882;BMP180;3986;41.884;23.466;2022-12-07T05:13:09;91895.00;;;2.80
7882;BMP180;3986;41.884;23.466;2022-12-07T05:15:35;91889.00;;;3.10
7882;BMP180;3986;41.884;23.466;2022-12-07T05:18:02;91886.00;;;3.10
7882;BMP180;3986;41.884;23.466;2022-12-07T05:20:29;91893.00;;;3.20
7882;BMP180;3986;41.884;23.466;2022-12-07T05:22:56;91888.00;;;3.30
7882;BMP180;3986;41.884;23.466;2022-12-07T05:25:25;91898.00;;;3.30
7882;BMP180;3986;41.884;23.466;2022-12-07T05:27:52;91903.00;;;3.40
7882;BMP180;3986;41.884;23.466;2022-12-07T05:30:18;91900.00;;;3.10
7882;BMP180;3986;41.884;23.466;2022-12-07T05:32:45;91910.00;;;3.40
7882;BMP180;3986;41.884;23.466;2022-12-07T05:35:12;91915.00;;;3.00
7882;BMP180;3986;41.884;23.466;2022-12-07T05:37:39;91916.00;;;3.10
7882;BMP180;3986;41.884;23.466;2022-12-07T05:40:07;91921.00;;;3.20
7882;BMP180;3986;41.884;23.466;2022-12-07T05:42:35;91907.00;;;3.20
7882;BMP180;3986;41.884;23.466;2022-12-07T05:45:03;91911.00;;;3.40
7882;BMP180;3986;41.884;23.466;2022-12-07T05:47:30;91883.00;;;3.60
7882;BMP180;3986;41.884;23.466;2022-12-07T05:49:57;91908.00;;;3.30
7882;BMP180;3986;41.884;23.466;2022-12-07T05:52:24;91911.00;;;3.20
7882;BMP180;3986;41.884;23.466;2022-12-07T05:54:51;91912.00;;;3.30
7882;BMP180;3986;41.884;23.466;2022-12-07T05:57:18;91918.00;;;3.30
7882;BMP180;3986;41.884;23.466;2022-12-07T05:59:46;91926.00;;;3.50
7882;BMP180;3986;41.884;23.466;2022-12-07T06:02:14;91758.00;;;3.50
7882;BMP180;3986;41.884;23.466;2022-12-07T06:06:29;91917.00;;;3.40
7882;BMP180;3986;41.884;23.466;2022-12-07T06:08:56;91913.00;;;3.20
7882;BMP180;3986;41.884;23.466;2022-12-07T06:11:22;91915.00;;;3.40
7882;BMP180;3986;41.884;23.466;2022-12-07T06:14:06;91918.00;;;3.50
7882;BMP180;3986;41.884;23.466;2022-12-07T06:16:33;91920.00;;;3.70
7882;BMP180;3986;41.884;23.466;2022-12-07T06:19:00;91923.00;;;3.20
7882;BMP180;3986;41.884;23.466;2022-12-07T06:21:28;91916.00;;;3.30
7882;BMP180;3986;41.884;23.466;2022-12-07T06:23:55;91920.00;;;3.90
7882;BMP180;3986;41.884;23.466;2022-12-07T06:26:22;91919.00;;;3.80
7882;BMP180;3986;41.884;23.466;2022-12-07T06:28:49;91923.00;;;3.40
7882;BMP180;3986;41.884;23.466;2022-12-07T06:31:16;91921.00;;;3.40
7882;BMP180;3986;41.884;23.466;2022-12-07T06:33:42;91923.00;;;3.80
7882;BMP180;3986;41.884;23.466;2022-12-07T06:36:09;91908.00;;;3.70
7882;BMP180;3986;41.884;23.466;2022-12-07T06:38:38;91920.00;;;3.90
7882;BMP180;3986;41.884;23.466;2022-12-07T06:41:05;91917.00;;;4.40
7882;BMP180;3986;41.884;23.466;2022-12-07T06:43:32;91917.00;;;3.90
7882;BMP180;3986;41.884;23.466;2022-12-07T06:45:59;91928.00;;;4.20
7882;BMP180;3986;41.884;23.466;2022-12-07T06:48:25;91923.00;;;4.20
7882;BMP180;3986;41.884;23.466;2022-12-07T06:50:52;91921.00;;;4.20
7882;BMP180;3986;41.884;23.466;2022-12-07T06:53:19;91921.00;;;4.50
7882;BMP180;3986;41.884;23.466;2022-12-07T06:55:47;91926.00;;;4.60
7882;BMP180;3986;41.884;23.466;2022-12-07T06:58:14;91765.00;;;4.10
7882;BMP180;3986;41.884;23.466;2022-12-07T07:00:40;91931.00;;;4.10
7882;BMP180;3986;41.884;23.466;2022-12-07T07:03:07;91930.00;;;4.40
7882;BMP180;3986;41.884;23.466;2022-12-07T07:05:34;91929.00;;;4.00
7882;BMP180;3986;41.884;23.466;2022-12-07T07:08:01;91928.00;;;4.50
7882;BMP180;3986;41.884;23.466;2022-12-07T07:10:28;91931.00;;;4.60
7882;BMP180;3986;41.884;23.466;2022-12-07T07:12:56;91926.00;;;5.10
7882;BMP180;3986;41.884;23.466;2022-12-07T07:15:23;91934.00;;;5.20
7882;BMP180;3986;41.884;23.466;2022-12-07T07:17:50;91932.00;;;5.30
7882;BMP180;3986;41.884;23.466;2022-12-07T07:20:17;91932.00;;;5.50
7882;BMP180;3986;41.884;23.466;2022-12-07T07:22:43;91933.00;;;5.40
7882;BMP180;3986;41.884;23.466;2022-12-07T07:25:10;91928.00;;;5.30
7882;BMP180;3986;41.884;23.466;2022-12-07T07:27:37;91927.00;;;5.50
7882;BMP180;3986;41.884;23.466;2022-12-07T07:30:07;91924.00;;;5.50
7882;BMP180;3986;41.884;23.466;2022-12-07T07:32:34;91929.00;;;5.30
7882;BMP180;3986;41.884;23.466;2022-12-07T07:35:00;91927.00;;;5.20
7882;BMP180;3986;41.884;23.466;2022-12-07T07:37:27;91933.00;;;5.30
7882;BMP180;3986;41.884;23.466;2022-12-07T07:39:54;91929.00;;;5.30
7882;BMP180;3986;41.884;23.466;2022-12-07T07:42:21;91932.00;;;5.60
7882;BMP180;3986;41.884;23.466;2022-12-07T07:44:48;91942.00;;;5.30
7882;BMP180;3986;41.884;23.466;2022-12-07T07:47:16;91944.00;;;5.40
7882;BMP180;3986;41.884;23.466;2022-12-07T07:49:43;91939.00;;;5.10
7882;BMP180;3986;41.884;23.466;2022-12-07T07:52:10;91936.00;;;5.50
7882;BMP180;3986;41.884;23.466;2022-12-07T07:54:37;91936.00;;;5.90
7882;BMP180;3986;41.884;23.466;2022-12-07T07:57:03;91939.00;;;6.00
7882;BMP180;3986;41.884;23.466;2022-12-07T07:59:30;91937.00;;;5.80
7882;BMP180;3986;41.884;23.466;2022-12-07T08:01:57;91930.00;;;5.80
7882;BMP180;3986;41.884;23.466;2022-12-07T08:04:25;91944.00;;;5.90
7882;BMP180;3986;41.884;23.466;2022-12-07T08:06:52;91941.00;;;5.80
7882;BMP180;3986;41.884;23.466;2022-12-07T08:09:19;91947.00;;;5.70
7882;BMP180;3986;41.884;23.466;2022-12-07T08:11:46;91944.00;;;5.60
7882;BMP180;3986;41.884;23.466;2022-12-07T08:14:12;91939.00;;;5.50
7882;BMP180;3986;41.884;23.466;2022-12-07T08:16:39;91937.00;;;5.80
7882;BMP180;3986;41.884;23.466;2022-12-07T08:19:06;91937.00;;;5.90
7882;BMP180;3986;41.884;23.466;2022-12-07T08:21:34;91940.00;;;6.30
7882;BMP180;3986;41.884;23.466;2022-12-07T08:24:01;91940.00;;;6.20
7882;BMP180;3986;41.884;23.466;2022-12-07T08:26:28;91931.00;;;6.50
7882;BMP180;3986;41.884;23.466;2022-12-07T08:28:55;91957.00;;;6.50
7882;BMP180;3986;41.884;23.466;2022-12-07T08:31:21;91939.00;;;5.80
7882;BMP180;3986;41.884;23.466;2022-12-07T08:33:48;91936.00;;;6.00
7882;BMP180;3986;41.884;23.466;2022-12-07T08:36:16;91953.00;;;5.70
7882;BMP180;3986;41.884;23.466;2022-12-07T08:38:44;91928.00;;;6.50
7882;BMP180;3986;41.884;23.466;2022-12-07T08:41:11;91928.00;;;6.90
7882;BMP180;3986;41.884;23.466;2022-12-07T08:43:38;91923.00;;;7.20
7882;BMP180;3986;41.884;23.466;2022-12-07T08:46:08;91935.00;;;7.10
7882;BMP180;3986;41.884;23.466;2022-12-07T08:48:39;91933.00;;;6.60
7882;BMP180;3986;41.884;23.466;2022-12-07T08:51:07;91936.00;;;7.20
7882;BMP180;3986;41.884;23.466;2022-12-07T08:53:34;91929.00;;;7.50
7882;BMP180;3986;41.884;23.466;2022-12-07T08:56:04;91926.00;;;6.90
7882;BMP180;3986;41.884;23.466;2022-12-07T08:58:32;91927.00;;;7.10
7882;BMP180;3986;41.884;23.466;2022-12-07T09:00:59;91931.00;;;7.70
7882;BMP180;3986;41.884;23.466;2022-12-07T09:03:26;91920.00;;;8.00
7882;BMP180;3986;41.884;23.466;2022-12-07T09:05:53;91919.00;;;8.00
7882;BMP180;3986;41.884;23.466;2022-12-07T09:08:21;91911.00;;;8.00
7882;BMP180;3986;41.884;23.466;2022-12-07T09:10:49;91910.00;;;7.90
7882;BMP180;3986;41.884;23.466;2022-12-07T09:13:18;91920.00;;;7.60
7882;BMP180;3986;41.884;23.466;2022-12-07T09:15:44;91909.00;;;7.30
7882;BMP180;3986;41.884;23.466;2022-12-07T09:18:11;91912.00;;;7.70
7882;BMP180;3986;41.884;23.466;2022-12-07T09:20:38;91894.00;;;7.90
7882;BMP180;3986;41.884;23.466;2022-12-07T09:23:05;91899.00;;;8.00
7882;BMP180;3986;41.884;23.466;2022-12-07T09:25:32;91898.00;;;7.70
7882;BMP180;3986;41.884;23.466;2022-12-07T09:27:59;91890.00;;;7.60
7882;BMP180;3986;41.884;23.466;2022-12-07T09:30:28;91891.00;;;7.00
7882;BMP180;3986;41.884;23.466;2022-12-07T09:32:56;91881.00;;;7.20
7882;BMP180;3986;41.884;23.466;2022-12-07T09:35:24;91897.00;;;8.20
7882;BMP180;3986;41.884;23.466;2022-12-07T09:37:51;91871.00;;;8.20
7882;BMP180;3986;41.884;23.466;2022-12-07T09:40:21;91873.00;;;8.80
7882;BMP180;3986;41.884;23.466;2022-12-07T09:42:51;91877.00;;;9.00
7882;BMP180;3986;41.884;23.466;2022-12-07T09:45:22;91871.00;;;9.00
7882;BMP180;3986;41.884;23.466;2022-12-07T09:47:51;91860.00;;;8.70
7882;BMP180;3986;41.884;23.466;2022-12-07T09:50:20;91884.00;;;8.10
7882;BMP180;3986;41.884;23.466;2022-12-07T09:52:48;91861.00;;;8.50
7882;BMP180;3986;41.884;23.466;2022-12-07T09:55:19;91869.00;;;8.50
7882;BMP180;3986;41.884;23.466;2022-12-07T09:57:48;91879.00;;;8.90
7882;BMP180;3986;41.884;23.466;2022-12-07T10:00:18;91856.00;;;9.30
7882;BMP180;3986;41.884;23.466;2022-12-07T10:02:47;91853.00;;;9.30
7882;BMP180;3986;41.884;23.466;2022-12-07T10:05:21;91855.00;;;10.20
7882;BMP180;3986;41.884;23.466;2022-12-07T10:07:48;91844.00;;;10.10
7882;BMP180;3986;41.884;23.466;2022-12-07T10:10:19;91840.00;;;10.80
7882;BMP180;3986;41.884;23.466;2022-12-07T10:12:56;91854.00;;;10.50
7882;BMP180;3986;41.884;23.466;2022-12-07T10:15:23;91846.00;;;8.70
7882;BMP180;3986;41.884;23.466;2022-12-07T10:17:51;91845.00;;;9.50
7882;BMP180;3986;41.884;23.466;2022-12-07T10:20:23;91865.00;;;10.10
7882;BMP180;3986;41.884;23.466;2022-12-07T10:22:59;91842.00;;;10.70
7882;BMP180;3986;41.884;23.466;2022-12-07T10:25:29;91847.00;;;10.70
7882;BMP180;3986;41.884;23.466;2022-12-07T10:28:02;91840.00;;;9.70
7882;BMP180;3986;41.884;23.466;2022-12-07T10:30:29;91803.00;;;9.10
7882;BMP180;3986;41.884;23.466;2022-12-07T10:32:58;91844.00;;;9.10
7882;BMP180;3986;41.884;23.466;2022-12-07T10:35:28;91841.00;;;9.70
7882;BMP180;3986;41.884;23.466;2022-12-07T10:37:57;91749.00;;;9.70
7882;BMP180;3986;41.884;23.466;2022-12-07T10:40:30;91838.00;;;9.00
7882;BMP180;3986;41.884;23.466;2022-12-07T10:43:03;91790.00;;;9.30
7882;BMP180;3986;41.884;23.466;2022-12-07T10:45:30;91831.00;;;8.90
7882;BMP180;3986;41.884;23.466;2022-12-07T10:48:04;91735.00;;;8.80
7882;BMP180;3986;41.884;23.466;2022-12-07T10:50:47;91833.00;;;8.70
7882;BMP180;3986;41.884;23.466;2022-12-07T10:53:30;91837.00;;;8.20
7882;BMP180;3986;41.884;23.466;2022-12-07T10:56:16;91854.00;;;8.70
7882;BMP180;3986;41.884;23.466;2022-12-07T10:58:55;91844.00;;;10.20
7882;BMP180;3986;41.884;23.466;2022-12-07T11:01:29;91831.00;;;9.60
7882;BMP180;3986;41.884;23.466;2022-12-07T11:04:16;91684.00;;;11.70
7882;BMP180;3986;41.884;23.466;2022-12-07T11:06:51;91821.00;;;14.20
7882;BMP180;3986;41.884;23.466;2022-12-07T11:09:33;91814.00;;;16.80
7882;BMP180;3986;41.884;23.466;2022-12-07T11:12:10;91810.00;;;17.70
7882;BMP180;3986;41.884;23.466;2022-12-07T11:14:46;91812.00;;;17.30
7882;BMP180;3986;41.884;23.466;2022-12-07T11:17:21;91808.00;;;16.40
7882;BMP180;3986;41.884;23.466;2022-12-07T11:20:01;91803.00;;;14.90
7882;BMP180;3986;41.884;23.466;2022-12-07T11:22:36;91791.00;;;14.30
7882;BMP180;3986;41.884;23.466;2022-12-07T11:25:24;91790.00;;;12.60
7882;BMP180;3986;41.884;23.466;2022-12-07T11:28:07;91783.00;;;12.30
7882;BMP180;3986;41.884;23.466;2022-12-07T11:30:42;91779.00;;;14.90
7882;BMP180;3986;41.884;23.466;2022-12-07T11:33:17;91790.00;;;15.40
7882;BMP180;3986;41.884;23.466;2022-12-07T11:35:55;91780.00;;;13.50
7882;BMP180;3986;41.884;23.466;2022-12-07T11:38:33;91780.00;;;11.50
7882;BMP180;3986;41.884;23.466;2022-12-07T11:41:05;91774.00;;;12.70
7882;BMP180;3986;41.884;23.466;2022-12-07T11:43:52;91783.00;;;14.30
7882;BMP180;3986;41.884;23.466;2022-12-07T11:46:23;91767.00;;;13.90
7882;BMP180;3986;41.884;23.466;2022-12-07T11:48:57;91779.00;;;13.30
7882;BMP180;3986;41.884;23.466;2022-12-07T11:51:26;91749.00;;;13.30
7882;BMP180;3986;41.884;23.466;2022-12-07T11:53:59;91758.00;;;14.70
7882;BMP180;3986;41.884;23.466;2022-12-07T11:56:30;91759.00;;;14.40
7882;BMP180;3986;41.884;23.466;2022-12-07T11:59:08;91787.00;;;13.70
7882;BMP180;3986;41.884;23.466;2022-12-07T12:01:45;91760.00;;;13.20
7882;BMP180;3986;41.884;23.466;2022-12-07T12:04:25;91765.00;;;13.60
7882;BMP180;3986;41.884;23.466;2022-12-07T12:06:54;91762.00;;;13.50
7882;BMP180;3986;41.884;23.466;2022-12-07T12:09:26;91752.00;;;13.40
7882;BMP180;3986;41.884;23.466;2022-12-07T12:15:02;91752.00;;;12.10
7882;BMP180;3986;41.884;23.466;2022-12-07T12:17:50;91585.00;;;12.10
7882;BMP180;3986;41.884;23.466;2022-12-07T12:20:24;91745.00;;;12.40
7882;BMP180;3986;41.884;23.466;2022-12-07T12:22:55;91755.00;;;12.30
7882;BMP180;3986;41.884;23.466;2022-12-07T12:25:27;91742.00;;;11.60
7882;BMP180;3986;41.884;23.466;2022-12-07T12:27:57;91736.00;;;10.80
7882;BMP180;3986;41.884;23.466;2022-12-07T12:30:30;91744.00;;;11.70
7882;BMP180;3986;41.884;23.466;2022-12-07T12:33:03;91730.00;;;11.90
7882;BMP180;3986;41.884;23.466;2022-12-07T12:35:31;91755.00;;;11.50
7882;BMP180;3986;41.884;23.466;2022-12-07T12:38:25;91734.00;;;12.10
7882;BMP180;3986;41.884;23.466;2022-12-07T12:40:55;91590.00;;;11.90
7882;BMP180;3986;41.884;23.466;2022-12-07T12:43:50;91730.00;;;12.50
7882;BMP180;3986;41.884;23.466;2022-12-07T12:46:48;91730.00;;;13.90
7882;BMP180;3986;41.884;23.466;2022-12-07T12:49:43;91723.00;;;14.70
7882;BMP180;3986;41.884;23.466;2022-12-07T12:55:17;91749.00;;;16.00
7882;BMP180;3986;41.884;23.466;2022-12-07T12:57:53;91745.00;;;16.80
7882;BMP180;3986;41.884;23.466;2022-12-07T13:00:40;91724.00;;;12.60
7882;BMP180;3986;41.884;23.466;2022-12-07T13:03:21;91724.00;;;13.10
7882;BMP180;3986;41.884;23.466;2022-12-07T13:06:18;91707.00;;;13.40
7882;BMP180;3986;41.884;23.466;2022-12-07T13:08:46;91719.00;;;12.40
7882;BMP180;3986;41.884;23.466;2022-12-07T13:11:18;91704.00;;;12.00
7882;BMP180;3986;41.884;23.466;2022-12-07T13:13:48;91721.00;;;12.20
7882;BMP180;3986;41.884;23.466;2022-12-07T13:16:39;91712.00;;;12.00
7882;BMP180;3986;41.884;23.466;2022-12-07T13:22:51;91705.00;;;10.80
7882;BMP180;3986;41.884;23.466;2022-12-07T13:25:31;91728.00;;;11.00
7882;BMP180;3986;41.884;23.466;2022-12-07T13:28:02;91714.00;;;11.00
7882;BMP180;3986;41.884;23.466;2022-12-07T13:30:45;91677.00;;;11.10
7882;BMP180;3986;41.884;23.466;2022-12-07T13:33:12;91703.00;;;11.10
7882;BMP180;3986;41.884;23.466;2022-12-07T13:35:40;91712.00;;;11.00
7882;BMP180;3986;41.884;23.466;2022-12-07T13:38:20;91705.00;;;11.10
7882;BMP180;3986;41.884;23.466;2022-12-07T13:41:03;91700.00;;;11.50
7882;BMP180;3986;41.884;23.466;2022-12-07T13:43:30;91704.00;;;11.50
7882;BMP180;3986;41.884;23.466;2022-12-07T13:45:58;91723.00;;;11.60
7882;BMP180;3986;41.884;23.466;2022-12-07T13:48:30;91705.00;;;11.30
7882;BMP180;3986;41.884;23.466;2022-12-07T13:51:00;91711.00;;;11.10
7882;BMP180;3986;41.884;23.466;2022-12-07T13:53:27;91719.00;;;10.90
7882;BMP180;3986;41.884;23.466;2022-12-07T13:55:56;91714.00;;;10.70
7882;BMP180;3986;41.884;23.466;2022-12-07T13:58:24;91717.00;;;10.60
7882;BMP180;3986;41.884;23.466;2022-12-07T14:00:51;91716.00;;;10.60
7882;BMP180;3986;41.884;23.466;2022-12-07T14:03:31;91722.00;;;10.40
7882;BMP180;3986;41.884;23.466;2022-12-07T14:06:19;91737.00;;;9.50
7882;BMP180;3986;41.884;23.466;2022-12-07T14:08:47;91719.00;;;9.00
7882;BMP180;3986;41.884;23.466;2022-12-07T14:11:17;91720.00;;;9.20
7882;BMP180;3986;41.884;23.466;2022-12-07T14:13:52;91724.00;;;9.20
7882;BMP180;3986;41.884;23.466;2022-12-07T14:16:24;91734.00;;;9.20
7882;BMP180;3986;41.884;23.466;2022-12-07T14:18:54;91730.00;;;9.20
7882;BMP180;3986;41.884;23.466;2022-12-07T14:21:23;91733.00;;;9.00
7882;BMP180;3986;41.884;23.466;2022-12-07T14:24:16;91732.00;;;9.10
7882;BMP180;3986;41.884;23.466;2022-12-07T14:26:45;91738.00;;;9.40
7882;BMP180;3986;41.884;23.466;2022-12-07T14:29:31;91726.00;;;9.20
7882;BMP180;3986;41.884;23.466;2022-12-07T14:32:15;91736.00;;;9.20
7882;BMP180;3986;41.884;23.466;2022-12-07T14:34:55;91737.00;;;8.60
7882;BMP180;3986;41.884;23.466;2022-12-07T14:37:21;91731.00;;;9.00
7882;BMP180;3986;41.884;23.466;2022-12-07T14:39:48;91731.00;;;8.90
7882;BMP180;3986;41.884;23.466;2022-12-07T14:42:15;91741.00;;;8.40
7882;BMP180;3986;41.884;23.466;2022-12-07T14:44:42;91742.00;;;8.40
7882;BMP180;3986;41.884;23.466;2022-12-07T14:47:09;91744.00;;;8.20
7882;BMP180;3986;41.884;23.466;2022-12-07T14:49:37;91637.00;;;8.20
7882;BMP180;3986;41.884;23.466;2022-12-07T14:52:06;91740.00;;;8.30
7882;BMP180;3986;41.884;23.466;2022-12-07T14:54:36;91732.00;;;7.80
7882;BMP180;3986;41.884;23.466;2022-12-07T14:57:02;91727.00;;;7.30
7882;BMP180;3986;41.884;23.466;2022-12-07T14:59:29;91739.00;;;7.40
7882;BMP180;3986;41.884;23.466;2022-12-07T15:01:56;91736.00;;;7.50
7882;BMP180;3986;41.884;23.466;2022-12-07T15:04:23;91734.00;;;7.30